Time,TemperatureF,DewpointF,PressureIn,WindDirection,WindDirectionDegrees,WindSpeedMPH,WindSpeedGustMPH,Humidity,HourlyPrecipIn,Conditions,Clouds,dailyrainin,SoftwareType,DateUTC
2013-03-05 00:09:00,51.7,39.0,30.11,ENE,68,0.0,-999.0,63,-99.99,,,0.00,weatherlink.com 1.10,2013-03-05 05:09:00,
2013-03-05 00:24:00,51.7,39.0,30.11,NE,45,0.0,-999.0,63,-99.99,,,0.00,weatherlink.com 1.10,2013-03-05 05:24:00,
2013-03-05 00:39:00,52.0,40.0,30.09,SE,143,3.0,-999.0,64,-99.99,,,0.00,weatherlink.com 1.10,2013-03-05 05:39:00,
2013-03-05 00:54:00,52.5,41.0,30.07,ENE,66,0.0,-999.0,65,-99.99,,,0.00,weatherlink.com 1.10,2013-03-05 05:54:00,
2013-03-05 01:09:00,52.9,41.0,30.08,ENE,70,0.0,-999.0,65,-99.99,,,0.00,weatherlink.com 1.10,2013-03-05 06:09:00,
2013-03-05 01:24:00,52.9,41.0,30.10,ENE,70,0.0,-999.0,65,-99.99,,,0.00,weatherlink.com 1.10,2013-03-05 06:24:00,
2013-03-05 01:39:00,52.8,41.0,30.11,ENE,70,0.0,-999.0,65,-99.99,,,0.00,weatherlink.com 1.10,2013-03-05 06:39:00,
2013-03-05 01:54:00,52.3,41.0,30.11,ENE,70,0.0,-999.0,65,-99.99,,,0.00,weatherlink.com 1.10,2013-03-05 06:54:00,
2013-03-05 02:09:00,51.4,40.0,30.12,ENE,70,0.0,-999.0,66,-99.99,,,0.00,weatherlink.com 1.10,2013-03-05 07:09:00,
2013-03-05 02:24:00,50.4,39.0,30.12,ENE,70,0.0,-999.0,66,-99.99,,,0.00,weatherlink.com 1.10,2013-03-05 07:24:00,
2013-03-05 02:39:00,49.6,39.0,30.11,ENE,70,0.0,-999.0,67,-99.99,,,0.00,weatherlink.com 1.10,2013-03-05 07:39:00,
2013-03-05 02:54:00,48.9,38.0,30.11,ENE,70,0.0,-999.0,67,-99.99,,,0.00,weatherlink.com 1.10,2013-03-05 07:54:00,
2013-03-05 03:09:00,48.6,38.0,30.11,ENE,70,0.0,-999.0,68,-99.99,,,0.00,weatherlink.com 1.10,2013-03-05 08:09:00,
2013-03-05 03:24:00,47.9,38.0,30.11,ENE,70,0.0,-999.0,69,-99.99,,,0.00,weatherlink.com 1.10,2013-03-05 08:24:00,
2013-03-05 03:39:00,47.1,37.0,30.11,ENE,70,0.0,-999.0,69,-99.99,,,0.00,weatherlink.com 1.10,2013-03-05 08:39:00,
2013-03-05 03:54:00,46.5,37.0,30.11,ENE,70,0.0,-999.0,70,-99.99,,,0.00,weatherlink.com 1.10,2013-03-05 08:54:00,
2013-03-05 04:09:00,46.4,37.0,30.12,ENE,70,0.0,-999.0,70,-99.99,,,0.00,weatherlink.com 1.10,2013-03-05 09:09:00,
2013-03-05 04:24:00,46.0,37.0,30.11,ENE,70,0.0,-999.0,71,-99.99,,,0.00,weatherlink.com 1.10,2013-03-05 09:24:00,
2013-03-05 04:39:00,45.5,37.0,30.12,ENE,70,0.0,-999.0,71,-99.99,,,0.00,weatherlink.com 1.10,2013-03-05 09:39:00,
2013-03-05 04:54:00,45.1,37.0,30.12,ENE,70,0.0,-999.0,72,-99.99,,,0.00,weatherlink.com 1.10,2013-03-05 09:54:00,
2013-03-05 05:09:00,44.6,36.0,30.12,ENE,70,0.0,-999.0,72,-99.99,,,0.00,weatherlink.com 1.10,2013-03-05 10:09:00,
2013-03-05 05:24:00,44.2,36.0,30.14,ENE,70,0.0,-999.0,72,-99.99,,,0.00,weatherlink.com 1.10,2013-03-05 10:24:00,
2013-03-05 05:39:00,43.9,36.0,30.14,ENE,70,0.0,-999.0,73,-99.99,,,0.00,weatherlink.com 1.10,2013-03-05 10:39:00,
2013-03-05 05:54:00,43.5,35.0,30.14,ENE,70,0.0,-999.0,73,-99.99,,,0.00,weatherlink.com 1.10,2013-03-05 10:54:00,
2013-03-05 06:09:00,43.3,35.0,30.14,ENE,70,0.0,-999.0,73,-99.99,,,0.00,weatherlink.com 1.10,2013-03-05 11:09:00,
2013-03-05 06:24:00,43.2,35.0,30.14,ENE,70,0.0,-999.0,74,-99.99,,,0.00,weatherlink.com 1.10,2013-03-05 11:24:00,
2013-03-05 06:39:00,43.2,35.0,30.14,ENE,70,0.0,-999.0,74,-99.99,,,0.00,weatherlink.com 1.10,2013-03-05 11:39:00,
2013-03-05 06:54:00,42.9,35.0,30.14,ENE,70,0.0,-999.0,74,-99.99,,,0.00,weatherlink.com 1.10,2013-03-05 11:54:00,
2013-03-05 07:09:00,42.9,35.0,30.14,ENE,70,0.0,-999.0,74,-99.99,,,0.00,weatherlink.com 1.10,2013-03-05 12:09:00,
2013-03-05 07:24:00,43.5,36.0,30.13,ENE,70,0.0,-999.0,75,-99.99,,,0.00,weatherlink.com 1.10,2013-03-05 12:24:00,
2013-03-05 07:39:00,44.1,37.0,30.14,ENE,70,0.0,-999.0,75,-99.99,,,0.00,weatherlink.com 1.10,2013-03-05 12:39:00,
2013-03-05 07:54:00,44.9,37.0,30.14,ENE,70,0.0,-999.0,75,-99.99,,,0.00,weatherlink.com 1.10,2013-03-05 12:54:00,
2013-03-05 08:09:00,46.8,40.0,30.13,ENE,70,1.0,-999.0,76,-99.99,,,0.00,weatherlink.com 1.10,2013-03-05 13:09:00,
2013-03-05 08:24:00,48.9,40.0,30.13,ENE,70,0.0,-999.0,72,-99.99,,,0.00,weatherlink.com 1.10,2013-03-05 13:24:00,
2013-03-05 08:39:00,50.7,41.0,30.13,NW,311,0.0,-999.0,69,-99.99,,,0.00,weatherlink.com 1.10,2013-03-05 13:39:00,
2013-03-05 08:54:00,51.9,40.0,30.12,East,89,1.0,-999.0,64,-99.99,,,0.00,weatherlink.com 1.10,2013-03-05 13:54:00,
2013-03-05 09:09:00,52.9,40.0,30.12,ENE,66,0.0,-999.0,61,-99.99,,,0.00,weatherlink.com 1.10,2013-03-05 14:09:00,
2013-03-05 09:24:00,53.8,39.0,30.12,WNW,295,2.0,-999.0,58,-99.99,,,0.00,weatherlink.com 1.10,2013-03-05 14:24:00,
2013-03-05 09:39:00,54.5,40.0,30.11,East,96,0.0,-999.0,59,-99.99,,,0.00,weatherlink.com 1.10,2013-03-05 14:39:00,
2013-03-05 09:54:00,55.3,40.0,30.11,NE,53,1.0,-999.0,57,-99.99,,,0.00,weatherlink.com 1.10,2013-03-05 14:54:00,
2013-03-05 10:09:00,55.9,40.0,30.10,ENE,78,3.0,-999.0,56,-99.99,,,0.00,weatherlink.com 1.10,2013-03-05 15:09:00,
2013-03-05 10:25:00,55.9,39.0,30.10,NE,56,1.0,-999.0,54,-99.99,,,0.00,weatherlink.com 1.10,2013-03-05 15:25:00,
2013-03-05 10:40:00,56.3,40.0,30.09,NE,41,1.0,-999.0,54,-99.99,,,0.00,weatherlink.com 1.10,2013-03-05 15:40:00,
2013-03-05 10:55:00,57.8,40.0,30.10,ENE,57,1.0,-999.0,51,-99.99,,,0.00,weatherlink.com 1.10,2013-03-05 15:55:00,
2013-03-05 11:10:00,59.0,38.0,30.09,ESE,106,2.0,-999.0,46,-99.99,,,0.00,weatherlink.com 1.10,2013-03-05 16:10:00,
2013-03-05 11:25:00,58.9,38.0,30.09,North,5,4.0,-999.0,46,-99.99,,,0.00,weatherlink.com 1.10,2013-03-05 16:25:00,
2013-03-05 11:40:00,60.1,37.0,30.08,ENE,78,4.0,-999.0,42,-99.99,,,0.00,weatherlink.com 1.10,2013-03-05 16:40:00,
2013-03-05 11:55:00,59.5,39.0,30.07,East,100,4.0,-999.0,47,-99.99,,,0.00,weatherlink.com 1.10,2013-03-05 16:55:00,
2013-03-05 12:10:00,60.7,40.0,30.07,NE,56,2.0,-999.0,46,-99.99,,,0.00,weatherlink.com 1.10,2013-03-05 17:10:00,
2013-03-05 12:25:00,62.3,39.0,30.05,East,87,1.0,-999.0,43,-99.99,,,0.00,weatherlink.com 1.10,2013-03-05 17:25:00,
2013-03-05 12:40:00,61.0,40.0,30.05,East,89,5.0,-999.0,46,-99.99,,,0.00,weatherlink.com 1.10,2013-03-05 17:40:00,
2013-03-05 13:10:00,58.9,41.0,30.02,West,274,1.0,-999.0,51,-99.99,,,0.00,weatherlink.com 1.10,2013-03-05 18:10:00,
2013-03-05 13:25:00,58.1,41.0,30.01,ENE,72,5.0,-999.0,53,-99.99,,,0.00,weatherlink.com 1.10,2013-03-05 18:25:00,
2013-03-05 13:40:00,58.3,41.0,30.00,ENE,76,3.0,-999.0,53,-99.99,,,0.00,weatherlink.com 1.10,2013-03-05 18:40:00,
2013-03-05 13:55:00,58.3,41.0,29.99,North,7,6.0,-999.0,54,-99.99,,,0.00,weatherlink.com 1.10,2013-03-05 18:55:00,
2013-03-05 14:10:00,58.3,42.0,29.98,NNE,21,2.0,-999.0,55,-99.99,,,0.00,weatherlink.com 1.10,2013-03-05 19:10:00,
2013-03-05 14:25:00,58.4,43.0,29.97,East,79,2.0,-999.0,56,-99.99,,,0.00,weatherlink.com 1.10,2013-03-05 19:25:00,
2013-03-05 14:40:00,59.9,43.0,29.97,NE,39,2.0,-999.0,54,-99.99,,,0.00,weatherlink.com 1.10,2013-03-05 19:40:00,
2013-03-05 14:55:00,59.3,43.0,29.97,East,83,3.0,-999.0,55,-99.99,,,0.00,weatherlink.com 1.10,2013-03-05 19:55:00,
2013-03-05 15:10:00,58.7,43.0,29.96,NNE,32,1.0,-999.0,56,-99.99,,,0.00,weatherlink.com 1.10,2013-03-05 20:10:00,
2013-03-05 15:25:00,58.4,43.0,29.96,ENE,60,2.0,-999.0,58,-99.99,,,0.00,weatherlink.com 1.10,2013-03-05 20:25:00,
2013-03-05 15:40:00,59.2,44.0,29.95,NNE,31,3.0,-999.0,57,-99.99,,,0.00,weatherlink.com 1.10,2013-03-05 20:40:00,
2013-03-05 15:55:00,59.6,44.0,29.94,NE,48,2.0,-999.0,56,-99.99,,,0.00,weatherlink.com 1.10,2013-03-05 20:55:00,
2013-03-05 16:10:00,59.5,44.0,29.94,ENE,76,9.0,-999.0,57,-99.99,,,0.00,weatherlink.com 1.10,2013-03-05 21:10:00,
2013-03-05 16:25:00,59.5,44.0,29.93,NNE,33,3.0,-999.0,58,-99.99,,,0.00,weatherlink.com 1.10,2013-03-05 21:25:00,
2013-03-05 16:40:00,60.5,45.0,29.92,ENE,62,2.0,-999.0,57,-99.99,,,0.00,weatherlink.com 1.10,2013-03-05 21:40:00,
2013-03-05 16:55:00,60.7,45.0,29.91,East,91,4.0,-999.0,57,-99.99,,,0.00,weatherlink.com 1.10,2013-03-05 21:55:00,
2013-03-05 17:10:00,60.4,45.0,29.89,NNE,33,1.0,-999.0,58,-99.99,,,0.00,weatherlink.com 1.10,2013-03-05 22:10:00,
2013-03-05 17:25:00,60.1,46.0,29.88,NNE,20,4.0,-999.0,59,-99.99,,,0.00,weatherlink.com 1.10,2013-03-05 22:25:00,
2013-03-05 17:40:00,59.8,45.0,29.87,North,10,3.0,-999.0,59,-99.99,,,0.00,weatherlink.com 1.10,2013-03-05 22:40:00,
2013-03-05 17:55:00,59.3,45.0,29.86,ENE,72,3.0,-999.0,60,-99.99,,,0.00,weatherlink.com 1.10,2013-03-05 22:55:00,
2013-03-05 18:10:00,59.3,45.0,29.87,NE,54,7.0,-999.0,60,-99.99,,,0.00,weatherlink.com 1.10,2013-03-05 23:10:00,
2013-03-05 18:25:00,59.3,45.0,29.86,ENE,71,5.0,-999.0,60,-99.99,,,0.00,weatherlink.com 1.10,2013-03-05 23:25:00,
2013-03-05 18:40:00,59.2,46.0,29.86,WNW,302,1.0,-999.0,61,-99.99,,,0.00,weatherlink.com 1.10,2013-03-05 23:40:00,
2013-03-05 18:55:00,59.3,46.0,29.86,NE,49,3.0,-999.0,61,-99.99,,,0.00,weatherlink.com 1.10,2013-03-05 23:55:00,
2013-03-05 19:10:00,59.3,47.0,29.85,SE,128,5.0,-999.0,63,-99.99,,,0.00,weatherlink.com 1.10,2013-03-06 00:10:00,
2013-03-05 19:25:00,59.3,47.0,29.84,East,81,5.0,-999.0,64,-99.99,,,0.00,weatherlink.com 1.10,2013-03-06 00:25:00,
2013-03-05 19:40:00,59.3,47.0,29.83,ENE,70,5.0,-999.0,65,-99.99,,,0.00,weatherlink.com 1.10,2013-03-06 00:40:00,
2013-03-05 19:55:00,59.2,48.0,29.82,NNE,20,3.0,-999.0,66,-99.99,,,0.00,weatherlink.com 1.10,2013-03-06 00:55:00,
2013-03-05 20:10:00,59.0,48.0,29.81,ENE,63,6.0,-999.0,67,-99.99,,,0.00,weatherlink.com 1.10,2013-03-06 01:10:00,
2013-03-05 20:25:00,58.9,48.0,29.80,ENE,75,3.0,-999.0,68,-99.99,,,0.00,weatherlink.com 1.10,2013-03-06 01:25:00,
2013-03-05 20:40:00,58.9,49.0,29.79,NNW,340,1.0,-999.0,69,-99.99,,,0.00,weatherlink.com 1.10,2013-03-06 01:40:00,
2013-03-05 20:55:00,59.2,49.0,29.79,ENE,57,3.0,-999.0,69,-99.99,,,0.00,weatherlink.com 1.10,2013-03-06 01:55:00,
2013-03-05 21:10:00,59.9,49.0,29.77,SE,141,2.0,-999.0,68,-99.99,,,0.00,weatherlink.com 1.10,2013-03-06 02:10:00,
2013-03-05 21:25:00,60.7,49.0,29.77,NE,45,2.0,-999.0,66,-99.99,,,0.00,weatherlink.com 1.10,2013-03-06 02:25:00,
2013-03-05 21:40:00,61.2,50.0,29.79,NNE,31,3.0,-999.0,66,-99.99,,,0.00,weatherlink.com 1.10,2013-03-06 02:40:00,
2013-03-05 21:55:00,62.3,50.0,29.78,NE,47,3.0,-999.0,64,-99.99,,,0.00,weatherlink.com 1.10,2013-03-06 02:55:00,
2013-03-05 22:10:00,62.7,50.0,29.78,North,8,4.0,-999.0,64,-99.99,,,0.00,weatherlink.com 1.10,2013-03-06 03:10:00,
2013-03-05 22:25:00,63.2,51.0,29.77,NNE,26,2.0,-999.0,65,-99.99,,,0.00,weatherlink.com 1.10,2013-03-06 03:25:00,
2013-03-05 22:40:00,62.7,52.0,29.79,SSE,164,2.0,-999.0,69,-99.99,,,0.05,weatherlink.com 1.10,2013-03-06 03:40:00,
2013-03-05 22:55:00,61.8,53.0,29.80,NE,52,5.0,-999.0,73,-99.99,,,0.06,weatherlink.com 1.10,2013-03-06 03:55:00,
2013-03-05 23:10:00,59.8,50.0,29.79,SSE,155,3.0,-999.0,70,-99.99,,,0.06,weatherlink.com 1.10,2013-03-06 04:10:00,
2013-03-05 23:25:00,59.2,50.0,29.78,SE,143,2.0,-999.0,71,-99.99,,,0.06,weatherlink.com 1.10,2013-03-06 04:25:00,
2013-03-05 23:40:00,59.0,50.0,29.79,East,91,2.0,-999.0,71,-99.99,,,0.06,weatherlink.com 1.10,2013-03-06 04:40:00,
2013-03-05 23:55:00,58.7,49.0,29.79,West,271,3.0,-999.0,71,-99.99,,,0.06,weatherlink.com 1.10,2013-03-06 04:55:00,